Time;durP1;ratioP1;P1;durP2;ratioP2;P2;SDS_P1;SDS_P2;PMS_P1;PMS_P2;Temp;Humidity;BMP_temperature;BMP_pressure;BME280_temperature;BME280_humidity;BME280_pressure;Samples;Min_cycle;Max_cycle;Signal;HPM_P1;HPM_P2
2022/02/10 00:21:54;;;;;;;11.47;7.83;;;10.30;99.90;;;;;;5077690;28;20237;-55
2022/02/10 00:24:50;;;;;;;10.40;7.40;;;10.40;99.90;;;;;;5081412;28;20210;-55
2022/02/10 00:35:46;;;;;;;9.30;7.37;;;10.20;99.90;;;;;;5078485;28;20249;-57
2022/02/10 00:38:14;;;;;;;8.77;7.30;;;9.90;99.90;;;;;;5077417;28;20199;-57
2022/02/10 00:40:41;;;;;;;11.07;8.73;;;9.80;99.90;;;;;;5078609;28;20198;-57
2022/02/10 00:43:08;;;;;;;11.13;8.50;;;9.70;99.90;;;;;;5077164;28;20209;-56
2022/02/10 00:45:35;;;;;;;10.93;8.70;;;9.70;99.90;;;;;;5076897;28;20210;-55
2022/02/10 00:48:07;;;;;;;10.10;7.50;;;9.80;99.90;;;;;;5076166;28;20202;-57
2022/02/10 00:50:36;;;;;;;11.53;7.70;;;9.60;99.90;;;;;;5078360;28;20310;-53
2022/02/10 00:53:13;;;;;;;10.13;7.70;;;9.60;99.90;;;;;;5076677;28;20199;-54
2022/02/10 00:55:43;;;;;;;11.73;7.70;;;9.70;99.90;;;;;;5076686;28;20684;-55
2022/02/10 00:58:14;;;;;;;10.20;7.47;;;9.90;99.90;;;;;;5078070;28;20281;-54
2022/02/10 01:11:42;;;;;;;8.67;6.57;;;10.00;99.90;;;;;;5071414;28;20311;-54
2022/02/10 01:14:19;;;;;;;9.90;6.90;;;9.80;99.90;;;;;;5072948;28;20235;-54
2022/02/10 01:30:16;;;;;;;9.27;7.03;;;9.80;99.90;;;;;;5076453;28;20199;-56
2022/02/10 01:32:45;;;;;;;9.50;6.97;;;9.70;99.90;;;;;;5077304;28;20345;-56
2022/02/10 01:35:18;;;;;;;10.00;7.63;;;9.70;99.90;;;;;;5074125;28;20227;-58
2022/02/10 01:37:45;;;;;;;10.57;7.70;;;9.70;99.90;;;;;;5060807;28;20200;-56
2022/02/10 01:40:26;;;;;;;10.40;7.27;;;9.90;99.90;;;;;;5074507;28;20199;-53
2022/02/10 01:57:40;;;;;;;11.17;7.73;;;10.10;99.90;;;;;;5077999;28;20221;-57
2022/02/10 02:05:15;;;;;;;11.33;7.97;;;9.50;99.90;;;;;;5079699;28;20300;-59
2022/02/10 02:07:42;;;;;;;11.03;7.33;;;9.50;99.90;;;;;;5078358;28;20233;-55
2022/02/10 02:10:09;;;;;;;10.57;8.50;;;9.60;99.90;;;;;;5080598;28;20237;-57
2022/02/10 02:12:36;;;;;;;10.87;8.03;;;9.70;99.90;;;;;;5077333;28;20245;-57
2022/02/10 02:15:04;;;;;;;11.13;8.53;;;9.70;99.90;;;;;;5081312;28;20221;-57
2022/02/10 02:17:31;;;;;;;10.90;7.70;;;9.60;99.90;;;;;;5063733;28;20197;-56
2022/02/10 02:19:58;;;;;;;11.67;8.27;;;9.80;99.90;;;;;;5076764;28;20287;-56
2022/02/10 02:22:25;;;;;;;10.83;7.87;;;9.70;99.90;;;;;;5052998;28;20231;-56
2022/02/10 02:24:52;;;;;;;11.63;8.63;;;9.60;99.90;;;;;;5064070;28;20212;-56
2022/02/10 02:27:20;;;;;;;9.83;7.90;;;9.70;99.90;;;;;;5066756;28;20206;-57
2022/02/10 02:29:56;;;;;;;10.30;8.03;;;9.60;99.90;;;;;;5064182;28;20492;-58
2022/02/10 02:32:33;;;;;;;10.87;8.87;;;9.50;99.90;;;;;;5049440;28;20333;-59
2022/02/10 03:05:10;;;;;;;12.67;10.17;;;9.90;99.90;;;;;;5064482;28;20200;-56
2022/02/10 03:07:45;;;;;;;13.03;10.00;;;9.90;99.90;;;;;;5068434;28;20206;-58
2022/02/10 03:12:41;;;;;;;17.37;9.70;;;9.90;99.90;;;;;;5064113;28;20223;-58
2022/02/10 03:15:18;;;;;;;13.87;10.93;;;9.90;99.90;;;;;;5065151;28;20617;-58
2022/02/10 04:07:17;;;;;;;16.87;11.63;;;9.10;99.90;;;;;;5085636;28;20292;-61
2022/02/10 04:15:13;;;;;;;16.07;11.60;;;9.00;99.90;;;;;;5079778;28;20391;-59
2022/02/10 05:36:15;;;;;;;17.27;11.37;;;8.70;99.90;;;;;;5081805;28;20669;-60
2022/02/10 05:38:48;;;;;;;15.40;11.30;;;8.70;99.90;;;;;;5078524;28;20205;-59
2022/02/10 05:47:26;;;;;;;16.63;11.43;;;8.40;99.90;;;;;;5057392;28;20216;-60
2022/02/10 05:57:56;;;;;;;14.97;11.00;;;8.40;99.90;;;;;;5081260;28;20571;-60
2022/02/10 06:52:34;;;;;;;21.90;13.33;;;8.50;99.90;;;;;;5079178;28;20303;-59
2022/02/10 06:55:12;;;;;;;24.53;13.13;;;8.50;99.90;;;;;;5076449;28;20692;-56
2022/02/10 07:03:35;;;;;;;26.43;13.10;;;8.50;99.90;;;;;;5082289;28;20202;-59
2022/02/10 07:11:45;;;;;;;29.37;14.83;;;8.70;99.90;;;;;;5074846;28;20644;-58
2022/02/10 07:52:30;;;;;;;36.23;16.23;;;8.60;99.90;;;;;;5077926;28;20289;-60
2022/02/10 08:50:35;;;;;;;10.20;6.43;;;8.80;99.90;;;;;;5072942;28;20230;-58
2022/02/10 08:55:55;;;;;;;10.90;5.67;;;8.70;99.90;;;;;;5075888;28;20653;-58
2022/02/10 09:06:57;;;;;;;6.27;3.83;;;8.60;99.90;;;;;;5073666;28;20188;-56
2022/02/10 09:09:57;;;;;;;8.27;4.50;;;8.60;99.90;;;;;;5072700;28;20253;-59
2022/02/10 10:03:15;;;;;;;5.57;3.23;;;9.20;99.90;;;;;;5071954;28;20283;-60
2022/02/10 10:05:57;;;;;;;5.03;2.80;;;9.30;99.90;;;;;;5067779;28;20208;-60
2022/02/10 10:14:11;;;;;;;2.93;2.10;;;9.30;99.90;;;;;;5072944;28;20221;-57
2022/02/10 10:19:16;;;;;;;4.90;2.43;;;9.20;99.90;;;;;;5079258;28;20569;-60
2022/02/10 10:21:50;;;;;;;5.43;3.10;;;9.10;99.90;;;;;;5059203;28;20706;-60
2022/02/10 10:24:41;;;;;;;6.07;2.87;;;9.20;99.90;;;;;;5060089;28;20280;-60
2022/02/10 10:27:25;;;;;;;4.17;2.47;;;9.20;99.90;;;;;;5070802;28;20279;-62
2022/02/10 10:57:16;;;;;;;6.97;3.60;;;9.50;99.90;;;;;;5080347;28;20202;-59
2022/02/10 11:41:53;;;;;;;4.37;1.93;;;10.20;1.00;;;;;;5079227;28;20197;-59
2022/02/10 11:44:53;;;;;;;4.30;2.00;;;10.20;1.00;;;;;;5056853;28;20363;-61
2022/02/10 12:30:16;;;;;;;6.37;1.40;;;9.70;1.00;;;;;;5074448;28;20221;-60
2022/02/10 14:14:44;;;;;;;4.97;1.97;;;9.70;99.90;;;;;;5081654;28;20217;-58
2022/02/10 14:17:14;;;;;;;8.67;2.00;;;9.70;99.90;;;;;;5065397;28;20236;-60
2022/02/10 14:19:59;;;;;;;10.43;3.40;;;9.60;99.90;;;;;;5080415;28;20216;-57
2022/02/10 14:22:37;;;;;;;5.50;2.43;;;9.60;99.90;;;;;;5080458;28;20248;-57
2022/02/10 14:28:10;;;;;;;7.67;2.30;;;9.70;99.90;;;;;;5080386;28;20353;-60
2022/02/10 14:30:38;;;;;;;5.10;1.90;;;9.50;39.40;;;;;;5082476;28;20676;-60
2022/02/10 14:33:06;;;;;;;4.97;1.87;;;9.30;77.60;;;;;;5080605;28;20221;-60
2022/02/10 14:36:00;;;;;;;8.00;2.33;;;9.50;43.50;;;;;;5082632;28;20218;-60
2022/02/10 15:33:41;;;;;;;10.63;3.83;;;9.50;1.00;;;;;;5063866;28;20210;-58
2022/02/10 15:47:54;;;;;;;7.57;1.90;;;9.20;1.00;;;;;;5075225;28;20565;-57
2022/02/10 15:50:01;;;;;;;7.10;2.30;;;9.10;1.00;;;;;;5070473;28;20218;-56
2022/02/10 16:19:25;;;;;;;4.60;1.20;;;8.70;1.00;;;;;;5072405;28;20212;-59
2022/02/10 16:22:09;;;;;;;5.73;1.23;;;8.90;1.00;;;;;;5053418;28;20241;-58
2022/02/10 16:24:48;;;;;;;4.47;1.20;;;8.80;1.00;;;;;;5056193;28;20226;-60
2022/02/10 16:27:27;;;;;;;4.90;1.03;;;8.90;1.00;;;;;;5042900;28;20207;-57
2022/02/10 16:30:03;;;;;;;3.77;1.40;;;8.80;1.00;;;;;;5070345;28;20362;-59
2022/02/10 16:32:35;;;;;;;5.97;1.33;;;8.70;1.00;;;;;;5067914;28;20309;-57
2022/02/10 16:35:08;;;;;;;4.30;1.50;;;8.60;1.00;;;;;;5053618;28;20304;-62
2022/02/10 16:37:43;;;;;;;3.53;1.00;;;8.60;1.00;;;;;;5076090;28;20232;-58
2022/02/10 16:40:11;;;;;;;6.47;1.40;;;8.40;1.00;;;;;;5070994;28;21000;-58
2022/02/10 16:42:43;;;;;;;4.23;1.50;;;8.40;1.00;;;;;;5072720;28;20268;-58
2022/02/10 16:45:15;;;;;;;4.07;1.20;;;8.40;1.00;;;;;;5073847;28;20208;-58
2022/02/10 16:47:47;;;;;;;4.50;1.50;;;8.40;1.00;;;;;;5072710;28;20702;-58
2022/02/10 16:50:20;;;;;;;4.03;1.20;;;8.40;1.00;;;;;;5068100;28;20205;-59
2022/02/10 16:53:02;;;;;;;3.43;1.57;;;8.50;1.00;;;;;;5072340;28;20483;-58
2022/02/10 16:58:30;;;;;;;4.27;1.50;;;8.50;1.00;;;;;;5075463;28;20202;-56
2022/02/10 17:14:57;;;;;;;3.53;1.30;;;8.30;1.00;;;;;;5076011;28;21089;-58
2022/02/10 17:25:13;;;;;;;5.47;1.40;;;8.30;1.00;;;;;;5074860;28;20741;-58
2022/02/10 17:27:43;;;;;;;2.27;1.37;;;8.30;1.00;;;;;;5062813;28;22915;-57
2022/02/10 17:33:25;;;;;;;7.30;1.90;;;8.30;1.00;;;;;;5076590;28;20301;-59
2022/02/10 17:44:08;;;;;;;4.87;1.53;;;8.10;1.00;;;;;;5080627;28;20249;-58
2022/02/10 17:51:56;;;;;;;6.93;1.70;;;8.30;36.00;;;;;;5077009;28;20265;-60
2022/02/10 17:54:28;;;;;;;5.50;1.90;;;8.40;2.30;;;;;;5064500;28;20225;-58
2022/02/10 17:56:55;;;;;;;4.50;1.90;;;8.30;1.00;;;;;;5072111;28;20523;-57
2022/02/10 17:59:23;;;;;;;7.00;2.80;;;8.40;1.00;;;;;;5075854;28;20201;-55
2022/02/10 18:01:50;;;;;;;5.20;2.27;;;8.50;1.00;;;;;;5077028;28;20210;-58
2022/02/10 18:04:19;;;;;;;9.20;2.93;;;8.60;1.00;;;;;;5076987;28;20312;-57
2022/02/10 18:06:52;;;;;;;5.97;1.47;;;8.50;1.00;;;;;;5077012;28;20209;-57
2022/02/10 18:14:39;;;;;;;5.50;1.60;;;8.30;1.00;;;;;;5074751;28;20341;-58
2022/02/10 18:17:34;;;;;;;3.53;1.50;;;8.10;1.00;;;;;;5066218;28;20208;-57
2022/02/10 18:20:10;;;;;;;5.07;1.50;;;8.20;1.00;;;;;;5074265;28;20206;-58
2022/02/10 18:28:56;;;;;;;4.27;1.40;;;8.00;1.00;;;;;;5073292;28;20216;-59
2022/02/10 19:08:36;;;;;;;3.10;1.30;;;7.80;1.00;;;;;;5075181;28;20256;-59
2022/02/10 19:11:07;;;;;;;2.60;1.73;;;7.70;1.00;;;;;;5076757;28;20211;-55
2022/02/10 19:13:34;;;;;;;4.13;1.83;;;7.70;1.00;;;;;;5059970;28;20289;-57
2022/02/10 19:16:01;;;;;;;4.47;1.77;;;7.80;1.00;;;;;;5076309;28;20306;-60
2022/02/10 19:18:48;;;;;;;2.70;1.20;;;7.70;99.90;;;;;;5074592;28;20707;-59
2022/02/10 19:21:15;;;;;;;6.03;1.83;;;7.70;1.00;;;;;;5077338;28;20188;-58
2022/02/10 19:23:42;;;;;;;5.50;1.33;;;7.70;1.00;;;;;;5076912;28;20317;-58
2022/02/10 19:26:09;;;;;;;7.00;1.30;;;7.70;1.00;;;;;;5075267;28;20214;-59
2022/02/10 19:28:35;;;;;;;8.27;1.50;;;7.70;1.00;;;;;;5078819;28;20227;-59
2022/02/10 19:31:05;;;;;;;3.10;1.30;;;7.70;1.00;;;;;;5056757;28;20211;-57
2022/02/10 19:33:32;;;;;;;5.00;1.57;;;7.70;1.00;;;;;;5080166;28;20255;-57
2022/02/10 19:36:00;;;;;;;8.93;1.67;;;7.40;1.00;;;;;;5077914;28;20671;-59
2022/02/10 19:38:30;;;;;;;6.77;1.60;;;7.30;1.00;;;;;;5078623;28;20202;-59
2022/02/10 19:40:57;;;;;;;3.97;1.17;;;7.10;1.00;;;;;;5075180;28;20208;-59
2022/02/10 19:43:43;;;;;;;3.40;1.30;;;7.10;1.00;;;;;;5078293;28;20570;-59
2022/02/10 19:46:11;;;;;;;5.80;2.17;;;7.00;1.00;;;;;;5075723;28;20253;-58
2022/02/10 19:48:39;;;;;;;2.53;1.33;;;7.00;1.00;;;;;;5076418;28;20203;-59
2022/02/10 19:51:07;;;;;;;7.33;1.80;;;7.10;1.00;;;;;;5080930;28;20307;-58
2022/02/10 19:53:35;;;;;;;3.67;1.20;;;7.00;1.00;;;;;;5073380;28;20214;-58
2022/02/10 19:56:03;;;;;;;3.77;1.30;;;7.10;1.00;;;;;;5058833;28;20245;-57
2022/02/10 19:58:30;;;;;;;4.83;1.47;;;7.20;1.00;;;;;;5074780;28;20212;-58
2022/02/10 20:00:59;;;;;;;10.60;1.50;;;7.10;1.00;;;;;;5055814;28;20203;-59
2022/02/10 20:03:28;;;;;;;3.60;1.47;;;6.90;1.00;;;;;;5074783;28;20643;-57
2022/02/10 20:05:56;;;;;;;3.47;1.40;;;6.90;1.00;;;;;;5073907;28;20199;-59
2022/02/10 20:08:24;;;;;;;4.63;1.50;;;7.30;1.00;;;;;;5058755;28;20573;-59
2022/02/10 20:10:55;;;;;;;6.07;1.90;;;7.30;1.00;;;;;;5072727;28;20321;-56
2022/02/10 20:13:25;;;;;;;1.27;0.90;;;7.00;1.00;;;;;;5073882;28;20213;-59
2022/02/10 20:15:53;;;;;;;1.60;1.50;;;6.90;1.00;;;;;;4374390;28;10000863;-57
2022/02/10 20:18:20;;;;;;;2.03;0.90;;;6.80;1.00;;;;;;5072103;28;20716;-59
2022/02/10 20:20:53;;;;;;;2.93;1.10;;;6.80;1.00;;;;;;5069439;28;20337;-59
2022/02/10 20:23:21;;;;;;;3.50;1.10;;;7.00;1.00;;;;;;5070070;28;20329;-59
2022/02/10 20:26:06;;;;;;;2.10;0.90;;;6.90;1.00;;;;;;5071780;28;20284;-58
2022/02/10 20:28:33;;;;;;;2.00;0.60;;;6.80;1.00;;;;;;5073885;28;20656;-58
2022/02/10 20:31:01;;;;;;;2.40;0.93;;;6.90;99.90;;;;;;5070211;28;20322;-56
2022/02/10 20:33:30;;;;;;;1.23;0.80;;;6.90;99.90;;;;;;5072318;28;20222;-58
2022/02/10 20:36:00;;;;;;;1.40;0.73;;;6.90;99.90;;;;;;5072430;28;20752;-59
2022/02/10 20:38:29;;;;;;;1.07;0.60;;;6.60;99.90;;;;;;5050885;28;20654;-60
2022/02/10 20:41:01;;;;;;;0.90;0.70;;;6.40;99.90;;;;;;5072679;28;20730;-59
2022/02/10 20:43:28;;;;;;;1.43;0.50;;;6.20;1.00;;;;;;5073313;28;20604;-59
2022/02/10 20:45:59;;;;;;;3.87;0.70;;;6.30;1.00;;;;;;5070706;28;20206;-58
2022/02/10 20:48:29;;;;;;;1.43;0.50;;;6.00;1.00;;;;;;5059852;28;20651;-57
2022/02/10 20:50:57;;;;;;;2.70;1.17;;;5.80;1.00;;;;;;5069119;28;20194;-59
2022/02/10 20:53:29;;;;;;;2.90;1.00;;;5.90;1.00;;;;;;5075219;28;20731;-61
2022/02/10 20:56:02;;;;;;;2.53;1.20;;;5.90;1.00;;;;;;5072127;28;20483;-57
2022/02/10 20:58:31;;;;;;;2.27;1.10;;;5.70;1.00;;;;;;5073801;28;20211;-58
2022/02/10 21:01:00;;;;;;;3.10;1.20;;;5.70;1.00;;;;;;5067795;28;20214;-58
2022/02/10 21:03:32;;;;;;;1.50;1.30;;;5.70;1.00;;;;;;5069491;28;20203;-58
2022/02/10 21:09:01;;;;;;;2.83;1.20;;;5.80;1.00;;;;;;5042754;28;20316;-58
2022/02/10 21:11:29;;;;;;;6.00;1.30;;;5.90;1.00;;;;;;5068460;28;20321;-59
2022/02/10 21:14:02;;;;;;;2.27;1.30;;;5.90;1.00;;;;;;5054986;28;21010;-58
2022/02/10 21:16:29;;;;;;;2.07;1.10;;;6.10;1.00;;;;;;5069142;28;20398;-58
2022/02/10 21:18:56;;;;;;;2.63;1.17;;;6.10;1.00;;;;;;5060299;28;20301;-58
2022/02/10 21:21:24;;;;;;;1.93;1.30;;;6.10;1.00;;;;;;5066415;28;20302;-57
2022/02/10 21:24:06;;;;;;;3.37;0.80;;;5.90;1.00;;;;;;5074401;28;20296;-57
2022/02/10 21:26:42;;;;;;;3.73;2.00;;;5.80;1.00;;;;;;5075828;28;20206;-58
2022/02/10 21:29:09;;;;;;;3.80;1.33;;;5.90;13.00;;;;;;5080788;28;20666;-58
2022/02/10 21:31:43;;;;;;;2.70;1.47;;;5.80;82.90;;;;;;5079065;28;20230;-58
2022/02/10 21:34:19;;;;;;;2.97;1.50;;;5.70;99.90;;;;;;5079474;28;20589;-56
2022/02/10 21:36:59;;;;;;;5.93;1.50;;;5.70;99.90;;;;;;5074887;28;20220;-57
2022/02/10 21:55:41;;;;;;;4.67;2.00;;;5.90;99.90;;;;;;5081485;28;20635;-58
2022/02/10 22:08:49;;;;;;;4.80;1.63;;;6.00;99.90;;;;;;5081543;28;20205;-57
2022/02/10 22:11:30;;;;;;;7.00;1.97;;;6.10;99.90;;;;;;5078241;28;20232;-58
2022/02/10 22:16:56;;;;;;;8.40;2.10;;;6.10;99.90;;;;;;5081215;28;20225;-57
2022/02/10 22:19:25;;;;;;;8.10;2.07;;;6.00;99.90;;;;;;5082100;28;20188;-56
2022/02/10 22:21:54;;;;;;;4.67;2.00;;;6.00;99.90;;;;;;5057599;28;21160;-59
2022/02/10 22:24:22;;;;;;;8.47;1.97;;;6.10;99.90;;;;;;5070579;28;20232;-55
2022/02/10 22:26:52;;;;;;;7.13;1.80;;;6.00;99.90;;;;;;5074367;28;20211;-58
2022/02/10 22:29:28;;;;;;;6.30;1.70;;;5.90;99.90;;;;;;5084531;28;20591;-55
2022/02/10 22:34:40;;;;;;;5.30;1.80;;;5.90;99.90;;;;;;5091443;28;20214;-56
2022/02/10 22:37:10;;;;;;;7.33;1.80;;;5.80;99.90;;;;;;5091759;28;20255;-55
2022/02/10 22:39:45;;;;;;;8.20;1.87;;;5.70;99.90;;;;;;5085282;28;20280;-57
2022/02/10 22:42:13;;;;;;;11.03;1.80;;;5.70;99.90;;;;;;5090978;28;20254;-58
2022/02/10 22:44:41;;;;;;;6.57;1.83;;;5.70;99.90;;;;;;5087405;28;20547;-58
2022/02/10 22:47:09;;;;;;;6.33;1.50;;;5.80;99.90;;;;;;5071082;28;20202;-58
2022/02/10 22:49:36;;;;;;;11.00;1.77;;;6.00;99.90;;;;;;5088384;28;20216;-57
2022/02/10 22:52:03;;;;;;;3.17;1.50;;;6.00;99.90;;;;;;5072506;28;20637;-58
2022/02/10 22:54:30;;;;;;;5.30;1.70;;;5.90;99.90;;;;;;5089255;28;20202;-56
2022/02/10 22:56:58;;;;;;;5.87;2.10;;;5.70;99.90;;;;;;5091186;28;20642;-58
2022/02/10 22:59:25;;;;;;;6.07;1.80;;;5.60;99.90;;;;;;5073511;28;20699;-58
2022/02/10 23:01:53;;;;;;;2.70;1.37;;;5.70;99.90;;;;;;5090629;28;20246;-58
2022/02/10 23:04:21;;;;;;;5.33;1.83;;;5.50;99.90;;;;;;5092516;28;20245;-59
2022/02/10 23:06:51;;;;;;;6.33;1.97;;;5.60;99.90;;;;;;5089055;28;20237;-57
2022/02/10 23:11:56;;;;;;;7.37;1.43;;;5.40;99.90;;;;;;5089550;28;20204;-58
2022/02/10 23:14:24;;;;;;;9.53;1.53;;;5.50;99.90;;;;;;5088952;28;20221;-58
2022/02/10 23:16:50;;;;;;;5.87;1.63;;;5.50;99.90;;;;;;5088971;28;20312;-57
2022/02/10 23:19:17;;;;;;;5.23;1.80;;;5.30;99.90;;;;;;5074894;28;20265;-58
2022/02/10 23:21:44;;;;;;;4.67;1.67;;;5.40;99.90;;;;;;5072797;28;20211;-57
2022/02/10 23:24:11;;;;;;;4.90;1.70;;;5.40;99.90;;;;;;5082351;28;20209;-57
2022/02/10 23:26:38;;;;;;;4.23;1.63;;;5.40;99.90;;;;;;5079740;28;20232;-60
2022/02/10 23:29:05;;;;;;;6.03;2.17;;;5.10;99.90;;;;;;5081640;28;20704;-58
2022/02/10 23:31:32;;;;;;;4.97;1.90;;;5.10;99.90;;;;;;5070373;28;20283;-58
2022/02/10 23:34:02;;;;;;;8.07;1.97;;;5.10;99.90;;;;;;5077382;28;20205;-57
2022/02/10 23:44:02;;;;;;;6.67;2.07;;;5.30;99.90;;;;;;5078497;28;20263;-57
2022/02/10 23:46:31;;;;;;;5.13;1.47;;;5.20;99.90;;;;;;5080798;28;20287;-58
2022/02/10 23:48:58;;;;;;;6.60;1.90;;;5.00;99.90;;;;;;5078524;28;20238;-58
2022/02/10 23:51:30;;;;;;;8.17;2.07;;;4.90;99.90;;;;;;5077265;28;20212;-58
2022/02/10 23:53:57;;;;;;;7.50;2.10;;;4.90;99.90;;;;;;5081059;28;20239;-59
2022/02/10 23:56:30;;;;;;;7.70;2.17;;;5.00;99.90;;;;;;5078520;28;20239;-55
2022/02/10 23:59:10;;;;;;;7.47;2.00;;;4.90;99.90;;;;;;5079102;28;20278;-58
